sensor_id;sensor_type;location;lat;lon;timestamp;temperature;humidity
15991;DHT22;8100;50.994;4.538;2022-08-03T00:02:03;19.90;99.90
15991;DHT22;8100;50.994;4.538;2022-08-03T00:04:50;19.90;99.90
15991;DHT22;8100;50.994;4.538;2022-08-03T00:07:37;19.90;99.90
15991;DHT22;8100;50.994;4.538;2022-08-03T00:10:25;19.90;99.90
15991;DHT22;8100;50.994;4.538;2022-08-03T00:13:13;19.80;99.90
15991;DHT22;8100;50.994;4.538;2022-08-03T00:15:55;19.80;99.90
15991;DHT22;8100;50.994;4.538;2022-08-03T00:18:40;19.80;99.90
15991;DHT22;8100;50.994;4.538;2022-08-03T00:21:28;19.70;99.90
15991;DHT22;8100;50.994;4.538;2022-08-03T00:24:15;19.70;99.90
15991;DHT22;8100;50.994;4.538;2022-08-03T00:27:02;19.70;99.90
15991;DHT22;8100;50.994;4.538;2022-08-03T00:29:48;19.60;99.90
15991;DHT22;8100;50.994;4.538;2022-08-03T00:32:35;19.60;99.90
15991;DHT22;8100;50.994;4.538;2022-08-03T00:35:20;19.60;99.90
15991;DHT22;8100;50.994;4.538;2022-08-03T00:38:06;19.60;99.90
15991;DHT22;8100;50.994;4.538;2022-08-03T00:40:52;19.50;99.90
15991;DHT22;8100;50.994;4.538;2022-08-03T00:43:39;19.50;99.90
15991;DHT22;8100;50.994;4.538;2022-08-03T00:46:24;19.40;99.90
15991;DHT22;8100;50.994;4.538;2022-08-03T00:49:10;19.40;99.90
15991;DHT22;8100;50.994;4.538;2022-08-03T00:51:55;19.40;99.90
15991;DHT22;8100;50.994;4.538;2022-08-03T00:54:42;19.30;99.90
15991;DHT22;8100;50.994;4.538;2022-08-03T00:57:29;19.40;99.90
15991;DHT22;8100;50.994;4.538;2022-08-03T01:00:20;19.30;99.90
15991;DHT22;8100;50.994;4.538;2022-08-03T01:03:07;19.20;99.90
15991;DHT22;8100;50.994;4.538;2022-08-03T01:05:59;19.20;99.90
15991;DHT22;8100;50.994;4.538;2022-08-03T01:08:47;19.20;99.90
15991;DHT22;8100;50.994;4.538;2022-08-03T01:11:31;19.10;99.90
15991;DHT22;8100;50.994;4.538;2022-08-03T01:14:22;19.10;99.90
15991;DHT22;8100;50.994;4.538;2022-08-03T01:17:16;19.00;99.90
15991;DHT22;8100;50.994;4.538;2022-08-03T01:20:07;19.00;99.90
15991;DHT22;8100;50.994;4.538;2022-08-03T01:26:33;18.90;99.90
15991;DHT22;8100;50.994;4.538;2022-08-03T01:29:45;18.90;99.90
15991;DHT22;8100;50.994;4.538;2022-08-03T01:32:41;18.80;99.90
15991;DHT22;8100;50.994;4.538;2022-08-03T01:35:34;18.80;99.90
15991;DHT22;8100;50.994;4.538;2022-08-03T01:38:26;18.80;99.90
15991;DHT22;8100;50.994;4.538;2022-08-03T01:41:15;18.80;99.90
15991;DHT22;8100;50.994;4.538;2022-08-03T01:44:03;18.70;99.90
15991;DHT22;8100;50.994;4.538;2022-08-03T01:46:52;18.70;99.90
15991;DHT22;8100;50.994;4.538;2022-08-03T01:49:42;18.60;99.90
15991;DHT22;8100;50.994;4.538;2022-08-03T01:52:29;18.60;99.90
15991;DHT22;8100;50.994;4.538;2022-08-03T01:55:18;18.60;99.90
15991;DHT22;8100;50.994;4.538;2022-08-03T01:58:04;18.50;99.90
15991;DHT22;8100;50.994;4.538;2022-08-03T02:00:51;18.50;99.90
15991;DHT22;8100;50.994;4.538;2022-08-03T02:03:43;18.40;99.90
15991;DHT22;8100;50.994;4.538;2022-08-03T02:06:31;18.40;99.90
15991;DHT22;8100;50.994;4.538;2022-08-03T02:09:20;18.40;99.90
15991;DHT22;8100;50.994;4.538;2022-08-03T02:12:08;18.30;99.90
15991;DHT22;8100;50.994;4.538;2022-08-03T02:14:54;18.20;99.90
15991;DHT22;8100;50.994;4.538;2022-08-03T02:17:43;18.20;99.90
15991;DHT22;8100;50.994;4.538;2022-08-03T02:20:32;18.20;99.90
15991;DHT22;8100;50.994;4.538;2022-08-03T02:23:19;18.10;99.90
15991;DHT22;8100;50.994;4.538;2022-08-03T02:26:07;18.10;99.90
15991;DHT22;8100;50.994;4.538;2022-08-03T02:28:46;18.10;99.90
15991;DHT22;8100;50.994;4.538;2022-08-03T02:31:36;18.00;99.90
15991;DHT22;8100;50.994;4.538;2022-08-03T02:34:25;17.90;99.90
15991;DHT22;8100;50.994;4.538;2022-08-03T02:37:17;17.90;99.90
15991;DHT22;8100;50.994;4.538;2022-08-03T02:40:07;17.80;99.90
15991;DHT22;8100;50.994;4.538;2022-08-03T02:43:00;17.80;99.90
15991;DHT22;8100;50.994;4.538;2022-08-03T02:45:48;17.70;99.90
15991;DHT22;8100;50.994;4.538;2022-08-03T02:48:22;17.60;99.90
15991;DHT22;8100;50.994;4.538;2022-08-03T02:51:08;17.70;99.90
15991;DHT22;8100;50.994;4.538;2022-08-03T02:53:58;17.70;99.90
15991;DHT22;8100;50.994;4.538;2022-08-03T02:56:46;17.70;99.90
15991;DHT22;8100;50.994;4.538;2022-08-03T02:59:33;17.60;99.90
15991;DHT22;8100;50.994;4.538;2022-08-03T03:02:20;17.60;99.90
15991;DHT22;8100;50.994;4.538;2022-08-03T03:05:09;17.50;99.90
15991;DHT22;8100;50.994;4.538;2022-08-03T03:07:55;17.50;99.90
15991;DHT22;8100;50.994;4.538;2022-08-03T03:10:44;17.40;99.90
15991;DHT22;8100;50.994;4.538;2022-08-03T03:13:31;17.40;99.90
15991;DHT22;8100;50.994;4.538;2022-08-03T03:16:20;17.40;99.90
15991;DHT22;8100;50.994;4.538;2022-08-03T03:18:57;17.30;99.90
15991;DHT22;8100;50.994;4.538;2022-08-03T03:21:43;17.30;99.90
15991;DHT22;8100;50.994;4.538;2022-08-03T03:24:31;17.30;99.90
15991;DHT22;8100;50.994;4.538;2022-08-03T03:27:20;17.20;99.90
15991;DHT22;8100;50.994;4.538;2022-08-03T03:30:08;17.20;99.90
15991;DHT22;8100;50.994;4.538;2022-08-03T03:32:54;17.20;99.90
15991;DHT22;8100;50.994;4.538;2022-08-03T03:35:40;17.10;99.90
15991;DHT22;8100;50.994;4.538;2022-08-03T03:38:26;17.10;99.90
15991;DHT22;8100;50.994;4.538;2022-08-03T03:41:11;17.10;99.90
15991;DHT22;8100;50.994;4.538;2022-08-03T03:43:58;17.00;99.90
15991;DHT22;8100;50.994;4.538;2022-08-03T03:46:46;17.00;99.90
15991;DHT22;8100;50.994;4.538;2022-08-03T03:49:31;16.90;99.90
15991;DHT22;8100;50.994;4.538;2022-08-03T03:52:19;16.90;99.90
15991;DHT22;8100;50.994;4.538;2022-08-03T03:55:06;16.90;99.90
15991;DHT22;8100;50.994;4.538;2022-08-03T03:57:53;16.90;99.90
15991;DHT22;8100;50.994;4.538;2022-08-03T04:00:41;16.90;99.90
15991;DHT22;8100;50.994;4.538;2022-08-03T04:03:29;16.80;99.90
15991;DHT22;8100;50.994;4.538;2022-08-03T04:06:15;16.70;99.90
15991;DHT22;8100;50.994;4.538;2022-08-03T04:09:18;16.70;99.90
15991;DHT22;8100;50.994;4.538;2022-08-03T04:12:25;16.70;99.90
15991;DHT22;8100;50.994;4.538;2022-08-03T04:15:14;16.70;99.90
15991;DHT22;8100;50.994;4.538;2022-08-03T04:18:04;16.70;99.90
15991;DHT22;8100;50.994;4.538;2022-08-03T04:20:52;16.70;99.90
15991;DHT22;8100;50.994;4.538;2022-08-03T04:23:33;16.70;99.90
15991;DHT22;8100;50.994;4.538;2022-08-03T04:26:23;16.70;99.90
15991;DHT22;8100;50.994;4.538;2022-08-03T04:29:09;16.60;99.90
15991;DHT22;8100;50.994;4.538;2022-08-03T04:31:57;16.70;99.90
15991;DHT22;8100;50.994;4.538;2022-08-03T04:34:44;16.80;99.90
15991;DHT22;8100;50.994;4.538;2022-08-03T04:37:40;16.70;99.90
15991;DHT22;8100;50.994;4.538;2022-08-03T04:40:32;16.70;99.90
15991;DHT22;8100;50.994;4.538;2022-08-03T04:43:21;16.80;99.90
15991;DHT22;8100;50.994;4.538;2022-08-03T04:45:51;16.80;99.90
15991;DHT22;8100;50.994;4.538;2022-08-03T04:48:38;16.80;99.90
15991;DHT22;8100;50.994;4.538;2022-08-03T04:51:27;16.90;99.90
15991;DHT22;8100;50.994;4.538;2022-08-03T04:54:14;16.90;99.90
15991;DHT22;8100;50.994;4.538;2022-08-03T04:57:02;16.90;99.90
15991;DHT22;8100;50.994;4.538;2022-08-03T04:59:50;17.00;99.90
15991;DHT22;8100;50.994;4.538;2022-08-03T05:02:30;17.00;99.90
15991;DHT22;8100;50.994;4.538;2022-08-03T05:05:18;17.10;99.90
15991;DHT22;8100;50.994;4.538;2022-08-03T05:08:05;17.30;99.90
15991;DHT22;8100;50.994;4.538;2022-08-03T05:10:53;17.40;99.90
15991;DHT22;8100;50.994;4.538;2022-08-03T05:13:26;17.40;99.90
15991;DHT22;8100;50.994;4.538;2022-08-03T05:16:14;17.50;99.90
15991;DHT22;8100;50.994;4.538;2022-08-03T05:18:59;17.60;99.90
15991;DHT22;8100;50.994;4.538;2022-08-03T05:21:28;17.70;99.90
15991;DHT22;8100;50.994;4.538;2022-08-03T05:24:15;17.90;99.90
15991;DHT22;8100;50.994;4.538;2022-08-03T05:27:02;18.10;99.90
15991;DHT22;8100;50.994;4.538;2022-08-03T05:29:51;18.30;99.90
15991;DHT22;8100;50.994;4.538;2022-08-03T05:32:38;18.50;99.90
15991;DHT22;8100;50.994;4.538;2022-08-03T05:35:26;18.60;99.90
15991;DHT22;8100;50.994;4.538;2022-08-03T05:38:12;18.70;99.90
15991;DHT22;8100;50.994;4.538;2022-08-03T05:40:59;18.80;99.90
15991;DHT22;8100;50.994;4.538;2022-08-03T05:43:44;18.90;99.90
15991;DHT22;8100;50.994;4.538;2022-08-03T05:46:32;19.00;99.90
15991;DHT22;8100;50.994;4.538;2022-08-03T05:49:17;19.10;99.90
15991;DHT22;8100;50.994;4.538;2022-08-03T05:52:04;19.20;99.90
15991;DHT22;8100;50.994;4.538;2022-08-03T05:54:52;19.50;99.90
15991;DHT22;8100;50.994;4.538;2022-08-03T05:57:40;19.60;99.90
15991;DHT22;8100;50.994;4.538;2022-08-03T06:00:28;19.80;99.90
15991;DHT22;8100;50.994;4.538;2022-08-03T06:03:16;19.90;99.90
15991;DHT22;8100;50.994;4.538;2022-08-03T06:06:03;20.10;99.90
15991;DHT22;8100;50.994;4.538;2022-08-03T06:08:50;20.10;99.90
15991;DHT22;8100;50.994;4.538;2022-08-03T06:11:38;20.30;99.90
15991;DHT22;8100;50.994;4.538;2022-08-03T06:14:28;20.60;99.90
15991;DHT22;8100;50.994;4.538;2022-08-03T06:17:15;20.90;99.90
15991;DHT22;8100;50.994;4.538;2022-08-03T06:20:03;21.00;99.90
15991;DHT22;8100;50.994;4.538;2022-08-03T06:22:51;21.10;99.90
15991;DHT22;8100;50.994;4.538;2022-08-03T06:25:39;21.20;99.90
15991;DHT22;8100;50.994;4.538;2022-08-03T06:28:26;21.20;99.90
15991;DHT22;8100;50.994;4.538;2022-08-03T06:31:15;21.20;99.90
15991;DHT22;8100;50.994;4.538;2022-08-03T06:34:03;21.30;99.90
15991;DHT22;8100;50.994;4.538;2022-08-03T06:36:50;21.60;99.90
15991;DHT22;8100;50.994;4.538;2022-08-03T06:39:38;21.50;99.90
15991;DHT22;8100;50.994;4.538;2022-08-03T06:42:25;21.60;99.90
15991;DHT22;8100;50.994;4.538;2022-08-03T06:45:12;21.60;99.90
15991;DHT22;8100;50.994;4.538;2022-08-03T06:48:02;21.70;99.90
15991;DHT22;8100;50.994;4.538;2022-08-03T06:50:49;21.90;99.90
15991;DHT22;8100;50.994;4.538;2022-08-03T06:53:36;22.10;99.90
15991;DHT22;8100;50.994;4.538;2022-08-03T06:56:24;22.30;99.90
15991;DHT22;8100;50.994;4.538;2022-08-03T06:59:11;22.40;99.90
15991;DHT22;8100;50.994;4.538;2022-08-03T07:01:58;22.70;99.90
15991;DHT22;8100;50.994;4.538;2022-08-03T07:04:47;22.70;99.90
15991;DHT22;8100;50.994;4.538;2022-08-03T07:07:34;22.80;99.90
15991;DHT22;8100;50.994;4.538;2022-08-03T07:10:21;22.90;99.90
15991;DHT22;8100;50.994;4.538;2022-08-03T07:13:09;23.10;99.90
15991;DHT22;8100;50.994;4.538;2022-08-03T07:15:56;23.30;99.90
15991;DHT22;8100;50.994;4.538;2022-08-03T07:18:43;23.40;99.90
15991;DHT22;8100;50.994;4.538;2022-08-03T07:21:32;23.50;99.90
15991;DHT22;8100;50.994;4.538;2022-08-03T07:24:19;23.70;99.90
15991;DHT22;8100;50.994;4.538;2022-08-03T07:27:07;23.80;99.90
15991;DHT22;8100;50.994;4.538;2022-08-03T07:29:55;24.00;99.90
15991;DHT22;8100;50.994;4.538;2022-08-03T07:32:42;24.00;99.90
15991;DHT22;8100;50.994;4.538;2022-08-03T07:35:29;24.00;99.90
15991;DHT22;8100;50.994;4.538;2022-08-03T07:38:18;24.00;99.90
15991;DHT22;8100;50.994;4.538;2022-08-03T07:41:05;23.90;99.90
15991;DHT22;8100;50.994;4.538;2022-08-03T07:43:55;24.00;99.90
15991;DHT22;8100;50.994;4.538;2022-08-03T07:46:42;24.00;99.90
15991;DHT22;8100;50.994;4.538;2022-08-03T07:49:30;24.00;99.90
15991;DHT22;8100;50.994;4.538;2022-08-03T07:52:18;24.10;99.90
15991;DHT22;8100;50.994;4.538;2022-08-03T07:55:24;24.10;99.90
15991;DHT22;8100;50.994;4.538;2022-08-03T07:58:12;24.20;99.90
15991;DHT22;8100;50.994;4.538;2022-08-03T08:01:02;24.20;99.90
15991;DHT22;8100;50.994;4.538;2022-08-03T08:03:50;24.30;99.90
15991;DHT22;8100;50.994;4.538;2022-08-03T08:06:37;24.40;99.90
15991;DHT22;8100;50.994;4.538;2022-08-03T08:09:24;24.50;99.90
15991;DHT22;8100;50.994;4.538;2022-08-03T08:12:13;24.60;99.90
15991;DHT22;8100;50.994;4.538;2022-08-03T08:15:00;24.70;99.90
15991;DHT22;8100;50.994;4.538;2022-08-03T08:17:49;24.80;99.90
15991;DHT22;8100;50.994;4.538;2022-08-03T08:20:37;24.90;99.90
15991;DHT22;8100;50.994;4.538;2022-08-03T08:23:24;25.10;99.90
15991;DHT22;8100;50.994;4.538;2022-08-03T08:26:12;25.00;99.90
15991;DHT22;8100;50.994;4.538;2022-08-03T08:29:00;25.10;99.90
15991;DHT22;8100;50.994;4.538;2022-08-03T08:31:48;25.30;99.90
15991;DHT22;8100;50.994;4.538;2022-08-03T08:34:35;25.40;99.90
15991;DHT22;8100;50.994;4.538;2022-08-03T08:37:23;25.50;99.90
15991;DHT22;8100;50.994;4.538;2022-08-03T08:40:10;25.50;99.90
15991;DHT22;8100;50.994;4.538;2022-08-03T08:42:58;25.80;99.90
15991;DHT22;8100;50.994;4.538;2022-08-03T08:45:48;25.80;99.90
15991;DHT22;8100;50.994;4.538;2022-08-03T08:48:40;25.80;99.90
15991;DHT22;8100;50.994;4.538;2022-08-03T08:51:30;25.90;99.90
15991;DHT22;8100;50.994;4.538;2022-08-03T08:54:20;26.30;99.90
15991;DHT22;8100;50.994;4.538;2022-08-03T08:57:08;26.40;99.90
15991;DHT22;8100;50.994;4.538;2022-08-03T08:59:56;26.40;99.90
15991;DHT22;8100;50.994;4.538;2022-08-03T09:02:45;26.30;99.90
15991;DHT22;8100;50.994;4.538;2022-08-03T09:05:32;26.50;99.90
15991;DHT22;8100;50.994;4.538;2022-08-03T09:08:20;26.80;99.90
15991;DHT22;8100;50.994;4.538;2022-08-03T09:11:08;27.00;99.90
15991;DHT22;8100;50.994;4.538;2022-08-03T09:13:55;27.00;99.90
15991;DHT22;8100;50.994;4.538;2022-08-03T09:16:55;27.00;99.90
15991;DHT22;8100;50.994;4.538;2022-08-03T09:20:04;27.10;99.90
15991;DHT22;8100;50.994;4.538;2022-08-03T09:22:54;27.10;99.90
15991;DHT22;8100;50.994;4.538;2022-08-03T09:25:42;27.30;99.90
15991;DHT22;8100;50.994;4.538;2022-08-03T09:28:34;27.60;99.90
15991;DHT22;8100;50.994;4.538;2022-08-03T09:31:33;27.50;99.90
15991;DHT22;8100;50.994;4.538;2022-08-03T09:34:24;27.50;99.90
15991;DHT22;8100;50.994;4.538;2022-08-03T09:37:16;27.60;99.90
15991;DHT22;8100;50.994;4.538;2022-08-03T09:40:04;27.70;99.90
15991;DHT22;8100;50.994;4.538;2022-08-03T09:42:55;27.90;99.90
15991;DHT22;8100;50.994;4.538;2022-08-03T09:45:43;28.00;99.90
15991;DHT22;8100;50.994;4.538;2022-08-03T09:48:31;28.00;99.90
15991;DHT22;8100;50.994;4.538;2022-08-03T09:51:23;28.00;99.90
15991;DHT22;8100;50.994;4.538;2022-08-03T09:54:12;28.10;99.90
15991;DHT22;8100;50.994;4.538;2022-08-03T09:56:59;28.00;99.90
15991;DHT22;8100;50.994;4.538;2022-08-03T09:59:46;28.10;99.90
15991;DHT22;8100;50.994;4.538;2022-08-03T10:02:34;28.30;99.90
15991;DHT22;8100;50.994;4.538;2022-08-03T10:05:31;28.40;99.90
15991;DHT22;8100;50.994;4.538;2022-08-03T10:08:19;28.20;99.90
15991;DHT22;8100;50.994;4.538;2022-08-03T10:11:07;28.30;99.90
15991;DHT22;8100;50.994;4.538;2022-08-03T10:13:55;28.60;99.90
15991;DHT22;8100;50.994;4.538;2022-08-03T10:16:42;28.60;99.90
15991;DHT22;8100;50.994;4.538;2022-08-03T10:19:29;28.40;99.90
15991;DHT22;8100;50.994;4.538;2022-08-03T10:22:18;28.50;99.90
15991;DHT22;8100;50.994;4.538;2022-08-03T10:25:09;28.60;99.90
15991;DHT22;8100;50.994;4.538;2022-08-03T10:28:01;28.80;99.90
15991;DHT22;8100;50.994;4.538;2022-08-03T10:30:51;29.00;99.90
15991;DHT22;8100;50.994;4.538;2022-08-03T10:33:49;29.00;99.90
15991;DHT22;8100;50.994;4.538;2022-08-03T10:36:40;29.20;99.90
15991;DHT22;8100;50.994;4.538;2022-08-03T10:39:28;29.20;99.90
15991;DHT22;8100;50.994;4.538;2022-08-03T10:42:16;29.20;99.90
15991;DHT22;8100;50.994;4.538;2022-08-03T10:45:07;29.10;99.90
15991;DHT22;8100;50.994;4.538;2022-08-03T10:47:56;29.20;99.90
15991;DHT22;8100;50.994;4.538;2022-08-03T10:50:45;29.30;99.90
15991;DHT22;8100;50.994;4.538;2022-08-03T10:53:35;29.20;99.90
15991;DHT22;8100;50.994;4.538;2022-08-03T10:56:38;29.20;99.90
15991;DHT22;8100;50.994;4.538;2022-08-03T10:59:59;29.50;99.90
15991;DHT22;8100;50.994;4.538;2022-08-03T11:03:07;29.60;99.90
15991;DHT22;8100;50.994;4.538;2022-08-03T11:06:14;29.80;99.90
15991;DHT22;8100;50.994;4.538;2022-08-03T11:09:17;30.10;99.90
15991;DHT22;8100;50.994;4.538;2022-08-03T11:12:20;30.00;99.90
15991;DHT22;8100;50.994;4.538;2022-08-03T11:15:08;29.80;99.90
15991;DHT22;8100;50.994;4.538;2022-08-03T11:18:08;29.70;99.90
15991;DHT22;8100;50.994;4.538;2022-08-03T11:20:57;29.80;99.90
15991;DHT22;8100;50.994;4.538;2022-08-03T11:23:47;30.30;99.90
15991;DHT22;8100;50.994;4.538;2022-08-03T11:26:34;30.00;99.90
15991;DHT22;8100;50.994;4.538;2022-08-03T11:29:28;30.10;99.90
15991;DHT22;8100;50.994;4.538;2022-08-03T11:35:57;30.30;99.90
15991;DHT22;8100;50.994;4.538;2022-08-03T11:39:12;30.50;99.90
15991;DHT22;8100;50.994;4.538;2022-08-03T11:41:59;30.70;99.90
15991;DHT22;8100;50.994;4.538;2022-08-03T11:44:47;30.70;99.90
15991;DHT22;8100;50.994;4.538;2022-08-03T11:47:37;30.50;99.90
15991;DHT22;8100;50.994;4.538;2022-08-03T11:50:25;30.50;99.90
15991;DHT22;8100;50.994;4.538;2022-08-03T11:53:18;30.90;99.90
15991;DHT22;8100;50.994;4.538;2022-08-03T11:56:05;30.70;99.90
15991;DHT22;8100;50.994;4.538;2022-08-03T11:58:55;30.50;98.40
15991;DHT22;8100;50.994;4.538;2022-08-03T12:01:43;30.70;99.90
15991;DHT22;8100;50.994;4.538;2022-08-03T12:04:31;30.70;98.10
15991;DHT22;8100;50.994;4.538;2022-08-03T12:07:18;30.70;99.50
15991;DHT22;8100;50.994;4.538;2022-08-03T12:10:08;30.70;99.30
15991;DHT22;8100;50.994;4.538;2022-08-03T12:12:58;30.70;99.60
15991;DHT22;8100;50.994;4.538;2022-08-03T12:15:50;30.80;98.70
15991;DHT22;8100;50.994;4.538;2022-08-03T12:18:38;31.10;97.10
15991;DHT22;8100;50.994;4.538;2022-08-03T12:21:25;31.20;97.80
15991;DHT22;8100;50.994;4.538;2022-08-03T12:24:13;31.00;96.30
15991;DHT22;8100;50.994;4.538;2022-08-03T12:27:02;30.90;96.10
15991;DHT22;8100;50.994;4.538;2022-08-03T12:29:50;31.10;96.30
15991;DHT22;8100;50.994;4.538;2022-08-03T12:32:41;31.10;96.90
15991;DHT22;8100;50.994;4.538;2022-08-03T12:35:28;31.20;96.60
15991;DHT22;8100;50.994;4.538;2022-08-03T12:38:20;31.40;95.20
15991;DHT22;8100;50.994;4.538;2022-08-03T12:41:09;31.50;94.80
15991;DHT22;8100;50.994;4.538;2022-08-03T12:44:00;31.40;95.00
15991;DHT22;8100;50.994;4.538;2022-08-03T12:46:56;31.10;94.40
15991;DHT22;8100;50.994;4.538;2022-08-03T12:49:44;31.30;95.40
15991;DHT22;8100;50.994;4.538;2022-08-03T12:52:42;31.40;94.20
15991;DHT22;8100;50.994;4.538;2022-08-03T12:55:30;31.60;96.00
15991;DHT22;8100;50.994;4.538;2022-08-03T12:58:29;31.70;94.50
15991;DHT22;8100;50.994;4.538;2022-08-03T13:01:20;31.80;94.40
15991;DHT22;8100;50.994;4.538;2022-08-03T13:04:09;31.60;93.40
15991;DHT22;8100;50.994;4.538;2022-08-03T13:06:58;31.70;94.20
15991;DHT22;8100;50.994;4.538;2022-08-03T13:09:46;32.00;94.40
15991;DHT22;8100;50.994;4.538;2022-08-03T13:12:45;32.40;94.50
15991;DHT22;8100;50.994;4.538;2022-08-03T13:15:32;32.00;92.50
15991;DHT22;8100;50.994;4.538;2022-08-03T13:18:21;31.90;94.20
15991;DHT22;8100;50.994;4.538;2022-08-03T13:21:08;32.20;92.80
15991;DHT22;8100;50.994;4.538;2022-08-03T13:23:55;32.00;91.60
15991;DHT22;8100;50.994;4.538;2022-08-03T13:26:43;31.30;92.50
15991;DHT22;8100;50.994;4.538;2022-08-03T13:29:30;31.40;92.20
15991;DHT22;8100;50.994;4.538;2022-08-03T13:32:17;31.30;92.10
15991;DHT22;8100;50.994;4.538;2022-08-03T13:35:07;31.80;92.80
15991;DHT22;8100;50.994;4.538;2022-08-03T13:37:54;32.30;92.20
15991;DHT22;8100;50.994;4.538;2022-08-03T13:40:42;32.40;91.50
15991;DHT22;8100;50.994;4.538;2022-08-03T13:43:29;32.20;91.70
15991;DHT22;8100;50.994;4.538;2022-08-03T13:46:17;32.20;90.80
15991;DHT22;8100;50.994;4.538;2022-08-03T13:49:05;32.40;90.80
15991;DHT22;8100;50.994;4.538;2022-08-03T13:51:53;32.30;89.90
15991;DHT22;8100;50.994;4.538;2022-08-03T13:54:41;32.70;90.90
15991;DHT22;8100;50.994;4.538;2022-08-03T13:57:28;32.80;91.20
15991;DHT22;8100;50.994;4.538;2022-08-03T14:00:16;32.40;88.10
15991;DHT22;8100;50.994;4.538;2022-08-03T14:03:04;32.30;87.40
15991;DHT22;8100;50.994;4.538;2022-08-03T14:05:52;35.00;87.90
15991;DHT22;8100;50.994;4.538;2022-08-03T14:08:40;36.50;80.20
15991;DHT22;8100;50.994;4.538;2022-08-03T14:11:27;37.60;75.50
15991;DHT22;8100;50.994;4.538;2022-08-03T14:14:15;40.80;70.90
15991;DHT22;8100;50.994;4.538;2022-08-03T14:17:02;43.80;56.00
15991;DHT22;8100;50.994;4.538;2022-08-03T14:19:49;44.20;51.10
15991;DHT22;8100;50.994;4.538;2022-08-03T14:22:36;44.40;47.30
15991;DHT22;8100;50.994;4.538;2022-08-03T14:25:25;41.10;47.50
15991;DHT22;8100;50.994;4.538;2022-08-03T14:28:12;40.40;48.90
15991;DHT22;8100;50.994;4.538;2022-08-03T14:31:00;41.50;47.80
15991;DHT22;8100;50.994;4.538;2022-08-03T14:33:48;42.50;47.50
15991;DHT22;8100;50.994;4.538;2022-08-03T14:36:35;43.00;48.30
15991;DHT22;8100;50.994;4.538;2022-08-03T14:39:22;41.80;45.60
15991;DHT22;8100;50.994;4.538;2022-08-03T14:42:11;40.20;44.70
15991;DHT22;8100;50.994;4.538;2022-08-03T14:44:58;40.60;45.30
15991;DHT22;8100;50.994;4.538;2022-08-03T14:47:46;41.70;44.80
15991;DHT22;8100;50.994;4.538;2022-08-03T14:50:33;41.50;43.80
15991;DHT22;8100;50.994;4.538;2022-08-03T14:53:20;42.10;43.60
15991;DHT22;8100;50.994;4.538;2022-08-03T14:56:07;40.30;43.00
15991;DHT22;8100;50.994;4.538;2022-08-03T14:58:56;39.90;44.10
15991;DHT22;8100;50.994;4.538;2022-08-03T15:01:43;40.10;43.60
15991;DHT22;8100;50.994;4.538;2022-08-03T15:04:31;39.50;44.20
15991;DHT22;8100;50.994;4.538;2022-08-03T15:07:18;38.60;45.90
15991;DHT22;8100;50.994;4.538;2022-08-03T15:10:06;38.50;45.70
15991;DHT22;8100;50.994;4.538;2022-08-03T15:12:54;40.60;45.00
15991;DHT22;8100;50.994;4.538;2022-08-03T15:15:42;42.20;42.50
15991;DHT22;8100;50.994;4.538;2022-08-03T15:18:30;42.20;41.60
15991;DHT22;8100;50.994;4.538;2022-08-03T15:21:17;42.80;41.20
15991;DHT22;8100;50.994;4.538;2022-08-03T15:24:05;43.50;42.00
15991;DHT22;8100;50.994;4.538;2022-08-03T15:26:52;43.40;41.00
15991;DHT22;8100;50.994;4.538;2022-08-03T15:29:39;42.30;40.80
15991;DHT22;8100;50.994;4.538;2022-08-03T15:32:28;40.60;42.50
15991;DHT22;8100;50.994;4.538;2022-08-03T15:35:15;40.80;42.60
15991;DHT22;8100;50.994;4.538;2022-08-03T15:38:02;40.70;41.20
15991;DHT22;8100;50.994;4.538;2022-08-03T15:40:50;41.70;40.90
15991;DHT22;8100;50.994;4.538;2022-08-03T15:43:39;41.90;40.70
15991;DHT22;8100;50.994;4.538;2022-08-03T15:46:26;42.60;41.70
15991;DHT22;8100;50.994;4.538;2022-08-03T15:49:15;42.30;40.10
15991;DHT22;8100;50.994;4.538;2022-08-03T15:52:03;42.20;40.90
15991;DHT22;8100;50.994;4.538;2022-08-03T15:54:50;41.50;39.70
15991;DHT22;8100;50.994;4.538;2022-08-03T15:57:37;40.30;41.30
15991;DHT22;8100;50.994;4.538;2022-08-03T16:00:25;41.70;41.50
15991;DHT22;8100;50.994;4.538;2022-08-03T16:03:12;43.50;39.70
15991;DHT22;8100;50.994;4.538;2022-08-03T16:06:00;42.20;41.90
15991;DHT22;8100;50.994;4.538;2022-08-03T16:08:47;43.50;41.30
15991;DHT22;8100;50.994;4.538;2022-08-03T16:11:15;45.30;39.00
15991;DHT22;8100;50.994;4.538;2022-08-03T16:14:00;46.50;38.40
15991;DHT22;8100;50.994;4.538;2022-08-03T16:16:48;45.90;37.30
15991;DHT22;8100;50.994;4.538;2022-08-03T16:19:35;44.20;37.40
15991;DHT22;8100;50.994;4.538;2022-08-03T16:22:22;41.70;38.20
15991;DHT22;8100;50.994;4.538;2022-08-03T16:25:10;41.00;39.50
15991;DHT22;8100;50.994;4.538;2022-08-03T16:27:55;41.80;40.00
15991;DHT22;8100;50.994;4.538;2022-08-03T16:30:45;43.20;39.30
15991;DHT22;8100;50.994;4.538;2022-08-03T16:33:33;43.60;37.80
15991;DHT22;8100;50.994;4.538;2022-08-03T16:36:20;42.60;38.70
15991;DHT22;8100;50.994;4.538;2022-08-03T16:39:09;41.00;38.70
15991;DHT22;8100;50.994;4.538;2022-08-03T16:41:56;38.30;41.10
15991;DHT22;8100;50.994;4.538;2022-08-03T16:44:43;36.70;43.50
15991;DHT22;8100;50.994;4.538;2022-08-03T16:47:30;35.90;44.10
15991;DHT22;8100;50.994;4.538;2022-08-03T16:50:18;35.10;45.50
15991;DHT22;8100;50.994;4.538;2022-08-03T16:53:06;34.60;46.60
15991;DHT22;8100;50.994;4.538;2022-08-03T16:55:54;34.20;47.60
15991;DHT22;8100;50.994;4.538;2022-08-03T16:58:42;34.30;48.20
15991;DHT22;8100;50.994;4.538;2022-08-03T17:01:29;34.30;47.10
15991;DHT22;8100;50.994;4.538;2022-08-03T17:04:16;34.10;49.30
15991;DHT22;8100;50.994;4.538;2022-08-03T17:07:04;34.20;48.40
15991;DHT22;8100;50.994;4.538;2022-08-03T17:09:50;34.10;48.30
15991;DHT22;8100;50.994;4.538;2022-08-03T17:12:39;33.90;49.10
15991;DHT22;8100;50.994;4.538;2022-08-03T17:15:27;33.90;48.10
15991;DHT22;8100;50.994;4.538;2022-08-03T17:18:15;33.70;49.10
15991;DHT22;8100;50.994;4.538;2022-08-03T17:21:05;33.60;49.20
15991;DHT22;8100;50.994;4.538;2022-08-03T17:23:54;33.60;49.00
15991;DHT22;8100;50.994;4.538;2022-08-03T17:26:46;33.60;49.20
15991;DHT22;8100;50.994;4.538;2022-08-03T17:29:35;33.60;48.60
15991;DHT22;8100;50.994;4.538;2022-08-03T17:32:22;33.40;48.60
15991;DHT22;8100;50.994;4.538;2022-08-03T17:35:09;33.40;49.30
15991;DHT22;8100;50.994;4.538;2022-08-03T17:37:48;33.40;49.90
15991;DHT22;8100;50.994;4.538;2022-08-03T17:40:34;33.40;50.00
15991;DHT22;8100;50.994;4.538;2022-08-03T17:43:21;33.20;50.00
15991;DHT22;8100;50.994;4.538;2022-08-03T17:46:11;33.20;49.50
15991;DHT22;8100;50.994;4.538;2022-08-03T17:48:58;33.20;49.90
15991;DHT22;8100;50.994;4.538;2022-08-03T17:51:50;33.10;50.70
15991;DHT22;8100;50.994;4.538;2022-08-03T17:54:42;33.10;51.00
15991;DHT22;8100;50.994;4.538;2022-08-03T17:57:37;32.90;51.70
15991;DHT22;8100;50.994;4.538;2022-08-03T18:00:26;32.80;49.70
15991;DHT22;8100;50.994;4.538;2022-08-03T18:03:38;32.70;50.70
15991;DHT22;8100;50.994;4.538;2022-08-03T18:06:07;32.60;50.80
15991;DHT22;8100;50.994;4.538;2022-08-03T18:08:37;32.50;51.60